»·PEaware :: N704YA CYCD-KBFI

N704YA :: CYCD-KBFI

FLIGHT INFORMATION

Flight Status: Arrived
Operator: Privately registered:
United States
More flights under this callsign
Pilot: Wayne R. (17783)
Aircraft: CESSNA 152 AEROBAT
(C152)
More flights by this aircraft type
Origin: CYCD Nanaimo
Canada
Destination: KBFI Boeing Field/King Co Intl
United States
More flights between these airports :: More routes between these airports
Route:
File this flight plan on PilotEdge
Remarks:
Altitude:
(Current/Filed)
5,500ft
Speed:
(Current/Filed)
100kts
Departed: 14-Nov-20 02:53 PM
Arrived: 14-Nov-20 04:11 PM
Distance/Time
Traveled:
110nm/1:18
Distance/Time
To Go:
Arrived

Flight Plot

Page will automatically refresh every two minutes.

Flight plan parsing failed; only flown route is shown


Map Options




Map Legend


Flown Route
Filed Route
Departure Airport
Arrival Airport
Navaid (VOR, NDB)
Fix

Horizontal Profiles

Position Reports

Time Latitude Longitude Heading Altitude Ground
Speed
14-Nov-20 14:50 49.062458 -123.869975 180 80ft 0kts
14-Nov-20 14:51 49.062130 -123.869923 184 80ft 14kts
14-Nov-20 14:52 49.046014 -123.870217 164 492ft 74kts
14-Nov-20 14:53 49.027524 -123.851972 140 1009ft 84kts
14-Nov-20 14:54 49.009709 -123.825508 130 1172ft 95kts
14-Nov-20 14:55 48.989815 -123.798087 142 1165ft 98kts
14-Nov-20 14:56 48.967160 -123.775195 144 1114ft 97kts
14-Nov-20 14:57 48.947475 -123.747098 134 1073ft 97kts
14-Nov-20 14:58 48.928724 -123.717738 132 1014ft 98kts
14-Nov-20 14:59 48.911101 -123.687112 141 983ft 96kts
14-Nov-20 15:00 48.907410 -123.682892 142 978ft 97kts
14-Nov-20 15:01 48.892389 -123.653885 122 946ft 96kts
14-Nov-20 15:02 48.893900 -123.613664 96 988ft 93kts
14-Nov-20 15:03 48.889845 -123.575922 101 1329ft 87kts
14-Nov-20 15:04 48.889569 -123.536847 102 1525ft 97kts
14-Nov-20 15:05 48.889364 -123.535102 102 1530ft 97kts
14-Nov-20 15:06 48.889364 -123.535102 102 1530ft 97kts
14-Nov-20 15:07 48.889364 -123.535102 102 1530ft 97kts
14-Nov-20 15:08 48.887643 -123.497216 94 1410ft 100kts
14-Nov-20 15:09 48.881871 -123.456482 126 1209ft 101kts
14-Nov-20 15:10 48.859787 -123.430834 150 1056ft 99kts
14-Nov-20 15:11 48.834252 -123.415280 153 969ft 99kts
14-Nov-20 15:12 48.810483 -123.395970 142 1029ft 94kts
14-Nov-20 15:13 48.788847 -123.374099 147 1240ft 93kts
14-Nov-20 15:14 48.764608 -123.358909 154 1427ft 94kts
14-Nov-20 15:15 48.740218 -123.343655 160 1594ft 95kts
14-Nov-20 15:16 48.715795 -123.332662 156 1939ft 89kts
14-Nov-20 15:17 48.692194 -123.318556 150 2195ft 94kts
14-Nov-20 15:18 48.667991 -123.301322 156 2253ft 97kts
14-Nov-20 15:19 48.643875 -123.282857 145 2270ft 97kts
14-Nov-20 15:20 48.623032 -123.256246 141 2205ft 99kts
14-Nov-20 15:21 48.599737 -123.233743 147 2146ft 97kts
14-Nov-20 15:22 48.574917 -123.219158 162 2227ft 98kts
14-Nov-20 15:23 48.548174 -123.210834 166 2310ft 98kts
14-Nov-20 15:24 48.521193 -123.205085 175 2382ft 99kts
14-Nov-20 15:25 48.493698 -123.211287 168 2432ft 99kts
14-Nov-20 15:26 48.469103 -123.194382 154 2499ft 97kts
14-Nov-20 15:27 48.444060 -123.175981 156 2523ft 100kts
14-Nov-20 15:28 48.419162 -123.157390 142 2570ft 100kts
14-Nov-20 15:29 48.397257 -123.131195 142 2619ft 100kts
14-Nov-20 15:30 48.373431 -123.109080 151 2665ft 100kts
14-Nov-20 15:31 48.348534 -123.090031 150 2706ft 100kts
14-Nov-20 15:32 48.325197 -123.066825 146 2755ft 100kts
14-Nov-20 15:33 48.300629 -123.046821 158 2794ft 100kts
14-Nov-20 15:34 48.277929 -123.022464 141 2826ft 100kts
14-Nov-20 15:35 48.255181 -122.997826 143 2852ft 100kts
14-Nov-20 15:36 48.231724 -122.975062 141 2880ft 100kts
14-Nov-20 15:37 48.210234 -122.948338 146 2901ft 100kts
14-Nov-20 15:38 48.186106 -122.927079 151 2920ft 101kts
14-Nov-20 15:39 48.162644 -122.904157 146 2927ft 100kts
14-Nov-20 15:40 48.138802 -122.882130 149 2895ft 101kts
14-Nov-20 15:41 48.116808 -122.862070 152 2793ft 92kts
14-Nov-20 15:42 48.095495 -122.842752 148 2709ft 90kts
14-Nov-20 15:43 48.073785 -122.824205 153 2616ft 89kts
14-Nov-20 15:44 48.052291 -122.805280 152 2500ft 89kts
14-Nov-20 15:45 48.030498 -122.787995 161 2457ft 88kts
14-Nov-20 15:46 48.008987 -122.770958 150 2478ft 86kts
14-Nov-20 15:47 47.989374 -122.750195 140 2564ft 85kts
14-Nov-20 15:48 47.973260 -122.723197 132 2546ft 93kts
14-Nov-20 15:49 47.956171 -122.694930 155 2436ft 90kts
14-Nov-20 15:50 47.932510 -122.685040 174 2347ft 89kts
14-Nov-20 15:51 47.908982 -122.673051 157 2267ft 90kts
14-Nov-20 15:52 47.886092 -122.657790 162 2145ft 90kts
14-Nov-20 15:53 47.861759 -122.649483 159 2113ft 89kts
14-Nov-20 15:54 47.838303 -122.637446 158 1998ft 90kts
14-Nov-20 15:56 47.815378 -122.623408 158 1854ft 89kts
14-Nov-20 15:57 47.794105 -122.605652 141 1755ft 89kts
14-Nov-20 15:58 47.775126 -122.580592 154 1376ft 89kts
14-Nov-20 15:59 47.752698 -122.561955 146 1374ft 94kts
14-Nov-20 16:00 47.730563 -122.540439 147 1415ft 95kts
14-Nov-20 16:01 47.707644 -122.520445 145 1436ft 95kts
14-Nov-20 16:02 47.684223 -122.504173 167 1460ft 97kts
14-Nov-20 16:03 47.658891 -122.492007 133 1215ft 99kts
14-Nov-20 16:04 47.642205 -122.463673 128 1338ft 89kts
14-Nov-20 16:05 47.627630 -122.433902 122 1441ft 89kts
14-Nov-20 16:06 47.613632 -122.403515 128 1514ft 89kts
14-Nov-20 16:07 47.596889 -122.376586 134 1549ft 88kts
14-Nov-20 16:08 47.578538 -122.351937 138 1355ft 89kts
14-Nov-20 16:09 47.561333 -122.329574 145 614ft 80kts
14-Nov-20 16:10 47.544557 -122.314815 151 123ft 71kts
14-Nov-20 16:11 47.534029 -122.304692 91 20ft 0kts
14-Nov-20 16:12 47.533920 -122.303800 97 19ft 15kts
14-Nov-20 16:13 47.535702 -122.302779 268 21ft 0kts
14-Nov-20 16:14 47.535702 -122.302779 268 21ft 0kts

Navigation Log

Ident Type
Flight plan parsing failed, navigation log unavailable